Weather at UNFICYP Nicosia Airport Helipad

Public forecast

Using degrees Celsius for public forecast. Weather courtesy of forecast.io.

Closest aviation weather report (METAR) to UNFICYP Nicosia Airport Helipad

Closest report is Nicosia (Lefkoşa) Ercan International Airport, 11.0 nm (20.3 km) E.

2024/04/12 16:50 (retrieved 35 minutes ago)

LCEN 121650Z 00000KT 9999 FEW020 19/15 Q1015 NOSIG RMK RWY11R 31005KT RWY29R 31004KT RWY11L 31006KT

Closest aviation forecast (TAF) to UNFICYP Nicosia Airport Helipad

Closest forecast is Nicosia (Lefkoşa) Ercan International Airport, 11.0 nm (20.3 km) E.

2024/04/12 12:48 (retrieved 5 hours ago)

TAF TAF LCEN 121040Z 1212/1312 15010KT 9999 SCT030 BECMG 1217/1220 28010KT